createdAt,value
2022-10-02T00:02:28.898Z,7.57
2022-10-02T00:05:21.086Z,8.63
2022-10-02T00:07:56.003Z,4.38
2022-10-02T00:10:57.430Z,10.15
2022-10-02T00:13:33.063Z,10.20
2022-10-02T00:16:01.783Z,9.15
2022-10-02T00:18:34.778Z,5.28
2022-10-02T00:21:24.771Z,8.07
2022-10-02T00:26:58.758Z,6.43
2022-10-02T00:29:39.982Z,18.73
2022-10-02T00:32:30.666Z,9.32
2022-10-02T00:35:45.759Z,7.10
2022-10-02T00:38:34.939Z,9.93
2022-10-02T00:41:34.003Z,7.68
2022-10-02T00:44:27.775Z,7.75
2022-10-02T00:47:16.111Z,4.78
2022-10-02T00:49:55.807Z,8.70
2022-10-02T00:53:07.699Z,3.10
2022-10-02T00:56:19.419Z,6.57
2022-10-02T00:59:21.954Z,4.50
2022-10-02T01:02:31.599Z,8.30
2022-10-02T01:05:01.883Z,7.50
2022-10-02T01:07:29.339Z,10.77
2022-10-02T01:09:56.183Z,8.70
2022-10-02T01:12:23.750Z,5.88
2022-10-02T01:14:50.290Z,3.15
2022-10-02T01:17:31.825Z,11.27
2022-10-02T01:20:04.360Z,6.72
2022-10-02T01:22:54.731Z,10.75
2022-10-02T01:25:21.266Z,12.23
2022-10-02T01:27:48.242Z,5.25
2022-10-02T01:30:18.767Z,7.57
2022-10-02T01:32:53.318Z,8.38
2022-10-02T01:35:22.987Z,5.88
2022-10-02T01:37:51.763Z,5.40
2022-10-02T01:40:39.147Z,11.00
2022-10-02T01:43:16.468Z,8.77
2022-10-02T01:46:21.487Z,12.93
2022-10-02T01:49:39.751Z,12.18
2022-10-02T01:52:22.814Z,10.55
2022-10-02T01:55:45.123Z,14.98
2022-10-02T01:58:50.125Z,13.85
2022-10-02T02:01:33.850Z,17.58
2022-10-02T02:04:21.770Z,26.02
2022-10-02T02:07:11.395Z,28.08
2022-10-02T02:09:44.999Z,39.65
2022-10-02T02:12:23.650Z,50.20
2022-10-02T02:15:04.765Z,47.05
2022-10-02T02:17:46.133Z,40.80
2022-10-02T02:20:28.782Z,35.88
2022-10-02T02:23:05.149Z,25.20
2022-10-02T02:25:37.542Z,18.67
2022-10-02T02:28:09.776Z,17.67
2022-10-02T02:30:41.187Z,17.75
2022-10-02T02:33:17.537Z,10.00
2022-10-02T02:35:52.657Z,10.45
2022-10-02T02:38:29.669Z,9.40
2022-10-02T02:41:15.541Z,16.35
2022-10-02T02:44:06.262Z,11.13
2022-10-02T02:47:00.542Z,11.73
2022-10-02T02:49:44.720Z,14.15
2022-10-02T02:52:19.617Z,8.70
2022-10-02T02:54:54.838Z,11.18
2022-10-02T02:57:30.145Z,10.45
2022-10-02T02:59:59.086Z,10.63
2022-10-02T03:02:25.729Z,12.48
2022-10-02T03:04:52.356Z,9.80
2022-10-02T03:07:19.041Z,21.05
2022-10-02T03:10:10.161Z,8.07
2022-10-02T03:13:16.985Z,13.82
2022-10-02T03:16:16.659Z,14.23
2022-10-02T03:19:14.630Z,9.57
2022-10-02T03:22:18.581Z,13.10
2022-10-02T03:25:03.673Z,11.50
2022-10-02T03:27:50.555Z,15.73
2022-10-02T03:30:21.862Z,14.45
2022-10-02T03:32:53.535Z,16.80
2022-10-02T03:35:22.678Z,14.52
2022-10-02T03:37:53.923Z,16.52
2022-10-02T03:40:25.041Z,17.58
2022-10-02T03:42:52.522Z,20.48
2022-10-02T03:45:46.121Z,12.57
2022-10-02T03:48:09.652Z,13.40
2022-10-02T03:50:36.695Z,13.80
2022-10-02T03:53:14.709Z,21.45
2022-10-02T03:55:48.419Z,25.45
2022-10-02T03:58:17.919Z,16.58
2022-10-02T04:01:37.981Z,13.50
2022-10-02T04:04:17.646Z,14.77
2022-10-02T04:06:47.673Z,10.18
2022-10-02T04:09:31.747Z,19.80
2022-10-02T04:12:14.708Z,17.65
2022-10-02T04:14:53.239Z,19.48
2022-10-02T04:17:46.190Z,14.70
2022-10-02T04:20:37.131Z,14.13
2022-10-02T04:23:19.150Z,15.25
2022-10-02T04:25:52.360Z,19.10
2022-10-02T04:28:25.255Z,18.63
2022-10-02T04:30:53.895Z,10.90
2022-10-02T04:33:22.876Z,14.85
2022-10-02T04:36:27.226Z,11.80
2022-10-02T04:39:21.252Z,14.82
2022-10-02T04:42:14.954Z,15.18
2022-10-02T04:45:20.947Z,16.02
2022-10-02T04:48:11.978Z,16.15
2022-10-02T04:51:18.070Z,18.08
2022-10-02T04:54:07.719Z,16.13
2022-10-02T04:57:05.210Z,17.60
2022-10-02T05:00:11.958Z,14.40
2022-10-02T05:03:09.275Z,13.63
2022-10-02T05:06:28.402Z,18.67
2022-10-02T05:09:14.139Z,16.58
2022-10-02T05:11:53.999Z,11.80
2022-10-02T05:14:45.706Z,23.58
2022-10-02T05:17:45.306Z,16.88
2022-10-02T05:20:42.617Z,20.35
2022-10-02T05:23:36.578Z,15.43
2022-10-02T05:26:31.479Z,16.83
2022-10-02T05:29:34.534Z,13.90
2022-10-02T05:32:21.090Z,11.93
2022-10-02T05:35:04.282Z,20.38
2022-10-02T05:37:59.726Z,14.15
2022-10-02T05:40:37.686Z,20.85
2022-10-02T05:43:33.438Z,9.00
2022-10-02T05:46:09.434Z,13.75
2022-10-02T05:48:48.663Z,13.10
2022-10-02T05:51:40.526Z,17.08
2022-10-02T05:54:24.866Z,12.75
2022-10-02T05:57:33.321Z,14.25
2022-10-02T06:00:28.636Z,12.88
2022-10-02T06:03:33.959Z,13.02
2022-10-02T06:06:32.663Z,12.18
2022-10-02T06:09:09.133Z,18.35
2022-10-02T06:12:13.779Z,10.90
2022-10-02T06:14:51.030Z,18.05
2022-10-02T06:17:31.607Z,10.57
2022-10-02T06:20:03.864Z,13.25
2022-10-02T06:22:42.090Z,19.27
2022-10-02T06:25:45.529Z,13.95
2022-10-02T06:28:22.490Z,12.02
2022-10-02T06:31:03.081Z,10.65
2022-10-02T06:33:33.110Z,16.30
2022-10-02T06:36:13.550Z,16.25
2022-10-02T06:39:36.126Z,11.00
2022-10-02T06:42:39.054Z,17.15
2022-10-02T06:45:32.223Z,14.65
2022-10-02T06:48:05.369Z,12.23
2022-10-02T06:50:42.323Z,14.77
2022-10-02T06:53:26.846Z,15.77
2022-10-02T06:56:31.139Z,11.88
2022-10-02T06:59:39.378Z,15.57
2022-10-02T07:02:48.214Z,9.13
2022-10-02T07:05:53.083Z,13.45
2022-10-02T07:08:38.474Z,14.73
2022-10-02T07:11:53.863Z,10.65
2022-10-02T07:15:02.972Z,8.27
2022-10-02T07:17:49.415Z,9.10
2022-10-02T07:20:23.326Z,14.02
2022-10-02T07:23:32.688Z,9.52
2022-10-02T07:26:23.046Z,9.00
2022-10-02T07:29:26.353Z,8.30
2022-10-02T07:32:36.127Z,9.65
2022-10-02T07:35:37.173Z,6.10
2022-10-02T07:38:43.196Z,9.10
2022-10-02T07:41:41.224Z,10.57
2022-10-02T07:45:00.180Z,7.55
2022-10-02T07:48:04.563Z,4.85
2022-10-02T07:50:59.383Z,5.53
2022-10-02T07:53:38.979Z,10.15
2022-10-02T07:56:19.684Z,6.63
2022-10-02T07:58:53.830Z,8.45
2022-10-02T08:01:26.397Z,6.00
2022-10-02T08:04:07.083Z,4.85
2022-10-02T08:06:34.719Z,6.82
2022-10-02T08:09:15.307Z,6.40
2022-10-02T08:11:50.188Z,8.98
2022-10-02T08:14:23.480Z,9.65
2022-10-02T08:16:53.330Z,6.93
2022-10-02T08:19:41.343Z,6.93
2022-10-02T08:22:30.537Z,5.93
2022-10-02T08:25:02.971Z,4.75
2022-10-02T08:28:11.194Z,4.80
2022-10-02T08:30:38.167Z,7.18
2022-10-02T08:33:22.624Z,5.60
2022-10-02T08:36:36.326Z,3.92
2022-10-02T08:39:59.116Z,8.07
2022-10-02T08:42:45.284Z,6.30
2022-10-02T08:45:34.162Z,3.55
2022-10-02T08:48:39.529Z,5.13
2022-10-02T08:51:25.814Z,3.25
2022-10-02T08:54:50.760Z,6.38
2022-10-02T08:57:52.310Z,3.25
2022-10-02T09:00:57.203Z,3.20
2022-10-02T09:03:35.669Z,1.45
2022-10-02T09:06:28.620Z,1.65
2022-10-02T09:09:45.349Z,1.83
2022-10-02T09:12:57.820Z,1.55
2022-10-02T09:16:08.376Z,1.92
2022-10-02T09:19:34.228Z,4.95
2022-10-02T09:22:22.793Z,1.58
2022-10-02T09:25:22.335Z,1.30
2022-10-02T09:28:10.420Z,1.75
2022-10-02T09:30:47.782Z,2.40
2022-10-02T09:34:17.825Z,2.72
2022-10-02T09:37:06.594Z,4.45
2022-10-02T09:40:14.998Z,1.83
2022-10-02T09:43:21.789Z,2.08
2022-10-02T09:45:54.302Z,2.17
2022-10-02T09:48:42.986Z,2.72
2022-10-02T09:51:22.292Z,1.67
2022-10-02T09:54:27.586Z,2.95
2022-10-02T09:57:37.716Z,1.13
2022-10-02T10:00:28.722Z,0.35
2022-10-02T10:03:36.345Z,2.63
2022-10-02T10:06:32.692Z,1.35
2022-10-02T10:09:08.878Z,2.92
2022-10-02T10:12:19.045Z,8.75
2022-10-02T10:15:08.991Z,7.30
2022-10-02T10:18:27.162Z,2.72
2022-10-02T10:21:41.379Z,1.05
2022-10-02T10:24:33.984Z,2.28
2022-10-02T10:27:36.464Z,2.22
2022-10-02T10:30:27.208Z,1.23
2022-10-02T10:33:27.868Z,0.82
2022-10-02T10:37:09.536Z,2.63
2022-10-02T10:39:53.232Z,2.30
2022-10-02T10:43:06.599Z,2.15
2022-10-02T10:46:13.159Z,0.65
2022-10-02T10:49:20.407Z,1.05
2022-10-02T10:52:25.038Z,0.63
2022-10-02T10:55:10.580Z,1.35
2022-10-02T10:58:03.293Z,0.70
2022-10-02T11:01:14.057Z,0.43
2022-10-02T11:04:10.870Z,1.15
2022-10-02T11:07:15.483Z,1.25
2022-10-02T11:10:08.357Z,7.93
2022-10-02T11:12:54.114Z,11.98
2022-10-02T11:15:42.286Z,2.47
2022-10-02T11:18:19.137Z,2.25
2022-10-02T11:21:46.203Z,6.72
2022-10-02T11:24:43.862Z,6.50
2022-10-02T11:28:02.079Z,1.58
2022-10-02T11:30:49.570Z,2.47
2022-10-02T11:33:25.550Z,3.38
2022-10-02T11:36:41.596Z,2.20
2022-10-02T11:39:32.464Z,3.42
2022-10-02T11:42:33.293Z,2.72
2022-10-02T11:45:15.026Z,3.17
2022-10-02T11:48:23.934Z,2.25
2022-10-02T11:51:10.768Z,4.30
2022-10-02T11:54:12.509Z,2.40
2022-10-02T11:56:57.330Z,1.15
2022-10-02T11:59:51.104Z,1.38
2022-10-02T12:02:39.731Z,1.73
2022-10-02T12:05:24.167Z,3.30
2022-10-02T12:08:17.296Z,3.65
2022-10-02T12:11:26.465Z,1.25
2022-10-02T12:14:14.849Z,1.15
2022-10-02T12:16:55.004Z,0.60
2022-10-02T12:20:09.931Z,1.75
2022-10-02T12:23:33.972Z,1.52
2022-10-02T12:26:35.858Z,1.58
2022-10-02T12:29:25.515Z,0.90
2022-10-02T12:32:08.140Z,0.63
2022-10-02T12:35:05.033Z,3.58
2022-10-02T12:38:30.272Z,1.63
2022-10-02T12:41:13.277Z,2.03
2022-10-02T12:44:21.956Z,1.20
2022-10-02T12:47:15.869Z,1.15
2022-10-02T12:50:08.741Z,1.40
2022-10-02T12:52:59.456Z,1.33
2022-10-02T12:55:44.142Z,4.43
2022-10-02T12:58:55.057Z,3.17
2022-10-02T13:02:56.090Z,7.32
2022-10-02T13:05:57.845Z,6.15
2022-10-02T13:08:48.461Z,3.75
2022-10-02T13:11:25.356Z,3.05
2022-10-02T13:14:22.383Z,3.22
2022-10-02T13:17:09.967Z,2.08
2022-10-02T13:19:58.276Z,3.70
2022-10-02T13:22:39.407Z,1.38
2022-10-02T13:25:42.605Z,4.53
2022-10-02T13:28:41.046Z,10.38
2022-10-02T13:31:25.142Z,4.70
2022-10-02T13:34:15.270Z,3.33
2022-10-02T13:37:18.940Z,4.13
2022-10-02T13:40:05.073Z,2.30
2022-10-02T13:43:16.134Z,3.75
2022-10-02T13:46:08.909Z,5.25
2022-10-02T13:49:15.378Z,2.58
2022-10-02T13:52:09.069Z,2.63
2022-10-02T13:54:50.082Z,5.40
2022-10-02T13:57:43.453Z,6.43
2022-10-02T14:00:21.985Z,3.90
2022-10-02T14:03:33.980Z,3.88
2022-10-02T14:06:15.906Z,4.53
2022-10-02T14:09:07.316Z,4.50
2022-10-02T14:12:05.155Z,4.45
2022-10-02T14:14:54.945Z,2.85
2022-10-02T14:17:52.485Z,3.17
2022-10-02T14:20:39.800Z,3.03
2022-10-02T14:23:51.265Z,3.55
2022-10-02T14:27:01.415Z,5.43
2022-10-02T14:30:05.193Z,4.88
2022-10-02T14:32:37.721Z,3.63
2022-10-02T14:35:46.975Z,3.15
2022-10-02T14:38:31.831Z,2.65
2022-10-02T14:41:13.711Z,18.92
2022-10-02T14:44:29.736Z,5.88
2022-10-02T14:47:30.608Z,4.22
2022-10-02T14:50:49.493Z,10.00
2022-10-02T14:53:43.195Z,5.85
2022-10-02T14:56:53.512Z,8.85
2022-10-02T15:00:09.798Z,8.35
2022-10-02T15:02:54.420Z,6.20
2022-10-02T15:06:00.258Z,8.27
2022-10-02T15:08:39.166Z,5.65
2022-10-02T15:11:19.330Z,5.32
2022-10-02T15:13:53.247Z,3.30
2022-10-02T15:16:41.759Z,5.90
2022-10-02T15:19:31.207Z,7.75
2022-10-02T15:22:03.851Z,14.82
2022-10-02T15:24:40.698Z,9.40
2022-10-02T15:27:43.098Z,6.97
2022-10-02T15:30:22.939Z,10.60
2022-10-02T15:33:34.350Z,9.05
2022-10-02T15:36:06.931Z,6.28
2022-10-02T15:39:03.418Z,6.43
2022-10-02T15:42:07.105Z,4.57
2022-10-02T15:44:56.132Z,5.97
2022-10-02T15:48:00.986Z,10.18
2022-10-02T15:50:49.272Z,5.05
2022-10-02T15:53:51.379Z,6.03
2022-10-02T15:56:29.880Z,5.25
2022-10-02T15:59:05.669Z,8.13
2022-10-02T16:02:16.982Z,7.47
2022-10-02T16:05:34.428Z,5.72
2022-10-02T16:08:25.837Z,8.55
2022-10-02T16:11:31.691Z,3.28
2022-10-02T16:14:34.900Z,7.00
2022-10-02T16:17:29.212Z,8.48
2022-10-02T16:20:44.566Z,6.82
2022-10-02T16:23:57.785Z,6.80
2022-10-02T16:26:58.866Z,7.25
2022-10-02T16:30:03.162Z,5.80
2022-10-02T16:33:04.908Z,6.05
2022-10-02T16:36:03.711Z,7.20
2022-10-02T16:38:45.615Z,4.85
2022-10-02T16:41:38.175Z,6.20
2022-10-02T16:44:31.318Z,9.90
2022-10-02T16:47:19.906Z,9.20
2022-10-02T16:50:12.716Z,6.00
2022-10-02T16:53:04.148Z,9.82
2022-10-02T16:55:34.642Z,6.72
2022-10-02T16:58:29.622Z,3.50
2022-10-02T17:01:02.184Z,3.30
2022-10-02T17:03:44.725Z,4.47
2022-10-02T17:06:26.501Z,6.25
2022-10-02T17:09:17.445Z,4.22
2022-10-02T17:12:47.989Z,4.38
2022-10-02T17:15:28.097Z,9.00
2022-10-02T17:18:33.729Z,7.93
2022-10-02T17:21:40.618Z,6.22
2022-10-02T17:24:50.374Z,8.88
2022-10-02T17:27:41.978Z,7.20
2022-10-02T17:30:09.089Z,10.10
2022-10-02T17:32:45.730Z,4.55
2022-10-02T17:35:23.987Z,8.50
2022-10-02T17:38:18.699Z,5.68
2022-10-02T17:41:06.484Z,10.85
2022-10-02T17:44:01.540Z,6.22
2022-10-02T17:46:50.924Z,9.60
2022-10-02T17:50:01.635Z,9.38
2022-10-02T17:53:09.493Z,9.77
2022-10-02T17:56:28.737Z,11.60
2022-10-02T17:59:27.226Z,19.90
2022-10-02T18:02:17.428Z,10.68
2022-10-02T18:05:31.802Z,7.65
2022-10-02T18:08:41.742Z,10.02
2022-10-02T18:12:01.050Z,7.57
2022-10-02T18:14:50.287Z,10.73
2022-10-02T18:17:44.625Z,36.42
2022-10-02T18:20:35.784Z,153.77
2022-10-02T18:23:54.560Z,181.05
2022-10-02T18:26:47.459Z,89.03
2022-10-02T18:29:38.948Z,54.03
2022-10-02T18:33:09.428Z,116.15
2022-10-02T18:36:12.531Z,45.42
2022-10-02T18:39:02.269Z,34.00
2022-10-02T18:41:55.975Z,12.75
2022-10-02T18:44:54.462Z,10.80
2022-10-02T18:47:54.101Z,16.10
2022-10-02T18:50:36.990Z,11.20
2022-10-02T18:53:57.570Z,23.40
2022-10-02T18:57:08.893Z,12.43
2022-10-02T19:00:13.069Z,11.20
2022-10-02T19:03:20.041Z,9.60
2022-10-02T19:05:55.877Z,13.90
2022-10-02T19:08:57.183Z,8.40
2022-10-02T19:11:29.604Z,8.63
2022-10-02T19:13:56.240Z,6.57
2022-10-02T19:16:29.976Z,11.20
2022-10-02T19:19:21.036Z,15.75
2022-10-02T19:21:48.277Z,8.10
2022-10-02T19:24:24.060Z,7.95
2022-10-02T19:26:59.497Z,6.95
2022-10-02T19:29:39.465Z,11.52
2022-10-02T19:32:28.964Z,6.53
2022-10-02T19:35:20.582Z,14.57
2022-10-02T19:37:51.132Z,12.50
2022-10-02T19:40:35.357Z,7.82
2022-10-02T19:43:24.481Z,11.30
2022-10-02T19:45:57.038Z,15.30
2022-10-02T19:48:27.537Z,8.48
2022-10-02T19:51:01.372Z,7.93
2022-10-02T19:54:00.424Z,9.63
2022-10-02T19:56:40.945Z,13.73
2022-10-02T19:59:21.112Z,11.05
2022-10-02T20:01:53.924Z,9.70
2022-10-02T20:04:24.548Z,8.98
2022-10-02T20:06:56.491Z,11.73
2022-10-02T20:09:39.563Z,9.65
2022-10-02T20:12:15.814Z,8.55
2022-10-02T20:14:57.807Z,7.72
2022-10-02T20:17:24.659Z,8.95
2022-10-02T20:19:57.567Z,9.32
2022-10-02T20:22:40.569Z,14.23
2022-10-02T20:25:26.400Z,7.07
2022-10-02T20:28:22.989Z,8.13
2022-10-02T20:31:03.427Z,11.93
2022-10-02T20:34:05.137Z,8.10
2022-10-02T20:36:49.217Z,9.05
2022-10-02T20:39:21.310Z,12.20
2022-10-02T20:42:06.662Z,10.13
2022-10-02T20:44:36.385Z,11.07
2022-10-02T20:47:31.031Z,12.82
2022-10-02T20:50:43.858Z,17.98
2022-10-02T20:54:09.071Z,9.30
2022-10-02T20:56:54.294Z,13.43
2022-10-02T20:59:47.838Z,13.20
2022-10-02T21:02:34.506Z,13.88
2022-10-02T21:05:49.938Z,12.13
2022-10-02T21:09:09.096Z,10.57
2022-10-02T21:11:56.526Z,8.55
2022-10-02T21:14:45.536Z,12.13
2022-10-02T21:18:19.984Z,10.45
2022-10-02T21:21:30.272Z,11.52
2022-10-02T21:24:45.950Z,9.45
2022-10-02T21:27:35.986Z,6.68
2022-10-02T21:30:14.883Z,10.95
2022-10-02T21:33:20.829Z,8.73
2022-10-02T21:36:31.249Z,7.65
2022-10-02T21:39:45.637Z,9.82
2022-10-02T21:42:49.539Z,9.68
2022-10-02T21:45:59.985Z,6.25
2022-10-02T21:49:14.299Z,6.90
2022-10-02T21:52:08.780Z,7.22
2022-10-02T21:55:13.542Z,7.05
2022-10-02T21:58:19.651Z,5.15
2022-10-02T22:01:19.934Z,8.23
2022-10-02T22:04:28.202Z,5.55
2022-10-02T22:07:29.643Z,5.75
2022-10-02T22:10:15.578Z,10.65
2022-10-02T22:13:40.682Z,9.45
2022-10-02T22:17:04.368Z,5.63
2022-10-02T22:19:53.758Z,7.38
2022-10-02T22:22:42.739Z,5.68
2022-10-02T22:25:53.835Z,9.88
2022-10-02T22:28:34.511Z,7.15
2022-10-02T22:31:26.998Z,9.77
2022-10-02T22:34:21.733Z,7.97
2022-10-02T22:37:36.451Z,5.15
2022-10-02T22:40:09.571Z,10.38
2022-10-02T22:43:07.346Z,6.78
2022-10-02T22:45:50.079Z,6.43
2022-10-02T22:48:46.532Z,10.88
2022-10-02T22:51:37.288Z,12.50
2022-10-02T22:54:11.172Z,6.97
2022-10-02T22:56:51.149Z,9.75
2022-10-02T22:59:31.491Z,7.68
2022-10-02T23:02:09.419Z,6.30
2022-10-02T23:05:19.103Z,7.82
2022-10-02T23:07:53.258Z,7.35
2022-10-02T23:10:39.911Z,7.60
2022-10-02T23:13:27.285Z,10.30
2022-10-02T23:15:58.692Z,6.40
2022-10-02T23:18:44.010Z,4.43
2022-10-02T23:21:35.916Z,8.23
2022-10-02T23:24:11.687Z,4.97
2022-10-02T23:26:55.347Z,8.45
2022-10-02T23:29:41.463Z,9.57
2022-10-02T23:32:47.600Z,5.60
2022-10-02T23:35:37.840Z,6.13
2022-10-02T23:38:15.152Z,5.07
2022-10-02T23:41:36.989Z,7.15
2022-10-02T23:44:23.640Z,6.07
2022-10-02T23:46:50.141Z,9.60
2022-10-02T23:49:31.997Z,8.93
2022-10-02T23:52:30.056Z,7.18
2022-10-02T23:55:28.396Z,6.13
2022-10-02T23:58:21.176Z,9.00
